sensor_id;sensor_type;location;lat;lon;timestamp;pressure;altitude;pressure_sealevel;temperature;humidity
50672;BME280;46021;55.882;37.654;2022-07-23T00:02:18;99488.44;;;15.67;68.68
50672;BME280;46021;55.882;37.654;2022-07-23T00:04:44;99490.16;;;15.68;68.39
50672;BME280;46021;55.882;37.654;2022-07-23T00:07:11;99487.59;;;15.66;68.72
50672;BME280;46021;55.882;37.654;2022-07-23T00:09:38;99486.09;;;15.62;68.35
50672;BME280;46021;55.882;37.654;2022-07-23T00:12:05;99487.13;;;15.59;68.68
50672;BME280;46021;55.882;37.654;2022-07-23T00:14:31;99497.63;;;15.59;68.97
50672;BME280;46021;55.882;37.654;2022-07-23T00:16:58;99501.19;;;15.58;69.10
50672;BME280;46021;55.882;37.654;2022-07-23T00:19:25;99497.78;;;15.56;69.03
50672;BME280;46021;55.882;37.654;2022-07-23T00:21:51;99493.56;;;15.54;69.16
50672;BME280;46021;55.882;37.654;2022-07-23T00:24:19;99495.50;;;15.50;69.08
50672;BME280;46021;55.882;37.654;2022-07-23T00:26:45;99494.91;;;15.45;69.28
50672;BME280;46021;55.882;37.654;2022-07-23T00:29:12;99498.44;;;15.44;69.73
50672;BME280;46021;55.882;37.654;2022-07-23T00:31:38;99498.44;;;15.44;69.39
50672;BME280;46021;55.882;37.654;2022-07-23T00:34:05;99496.69;;;15.45;70.10
50672;BME280;46021;55.882;37.654;2022-07-23T00:36:31;99494.91;;;15.45;69.62
50672;BME280;46021;55.882;37.654;2022-07-23T00:38:58;99504.47;;;15.46;69.64
50672;BME280;46021;55.882;37.654;2022-07-23T00:41:25;99499.31;;;15.45;69.67
50672;BME280;46021;55.882;37.654;2022-07-23T00:43:52;99495.06;;;15.42;69.90
50672;BME280;46021;55.882;37.654;2022-07-23T00:46:19;99500.50;;;15.39;70.16
50672;BME280;46021;55.882;37.654;2022-07-23T00:48:46;99501.50;;;15.36;70.38
50672;BME280;46021;55.882;37.654;2022-07-23T00:51:12;99492.16;;;15.31;70.48
50672;BME280;46021;55.882;37.654;2022-07-23T00:53:41;99500.06;;;15.31;70.64
50672;BME280;46021;55.882;37.654;2022-07-23T00:56:08;99504.53;;;15.29;70.41
50672;BME280;46021;55.882;37.654;2022-07-23T00:58:35;99504.72;;;15.26;70.86
50672;BME280;46021;55.882;37.654;2022-07-23T01:01:03;99503.00;;;15.25;70.86
50672;BME280;46021;55.882;37.654;2022-07-23T01:03:29;99510.97;;;15.23;71.24
50672;BME280;46021;55.882;37.654;2022-07-23T01:05:57;99509.22;;;15.24;71.26
50672;BME280;46021;55.882;37.654;2022-07-23T01:08:24;99510.13;;;15.23;71.31
50672;BME280;46021;55.882;37.654;2022-07-23T01:10:52;99505.78;;;15.21;71.58
50672;BME280;46021;55.882;37.654;2022-07-23T01:13:25;99503.16;;;15.21;71.64
50672;BME280;46021;55.882;37.654;2022-07-23T01:16:03;99502.00;;;15.27;71.35
50672;BME280;46021;55.882;37.654;2022-07-23T01:18:29;99506.25;;;15.30;70.84
50672;BME280;46021;55.882;37.654;2022-07-23T01:20:56;99499.28;;;15.29;71.18
50672;BME280;46021;55.882;37.654;2022-07-23T01:23:23;99502.88;;;15.28;71.49
50672;BME280;46021;55.882;37.654;2022-07-23T01:25:54;99507.34;;;15.26;71.54
50672;BME280;46021;55.882;37.654;2022-07-23T01:28:23;99509.97;;;15.26;71.58
50672;BME280;46021;55.882;37.654;2022-07-23T01:30:50;99506.41;;;15.27;71.47
50672;BME280;46021;55.882;37.654;2022-07-23T01:33:17;99504.53;;;15.29;71.41
50672;BME280;46021;55.882;37.654;2022-07-23T01:35:44;99501.00;;;15.30;71.39
50672;BME280;46021;55.882;37.654;2022-07-23T01:38:13;99505.31;;;15.31;71.34
50672;BME280;46021;55.882;37.654;2022-07-23T01:40:41;99499.22;;;15.30;71.47
50672;BME280;46021;55.882;37.654;2022-07-23T01:43:07;99495.75;;;15.30;71.50
50672;BME280;46021;55.882;37.654;2022-07-23T01:45:35;99497.44;;;15.31;71.84
50672;BME280;46021;55.882;37.654;2022-07-23T01:48:02;99499.13;;;15.32;71.53
50672;BME280;46021;55.882;37.654;2022-07-23T01:50:30;99495.56;;;15.33;71.67
50672;BME280;46021;55.882;37.654;2022-07-23T01:53:32;99490.22;;;15.34;71.57
50672;BME280;46021;55.882;37.654;2022-07-23T01:55:59;99497.94;;;15.37;71.87
50672;BME280;46021;55.882;37.654;2022-07-23T01:58:28;99498.63;;;15.41;71.63
50672;BME280;46021;55.882;37.654;2022-07-23T02:00:54;99510.50;;;15.48;71.74
50672;BME280;46021;55.882;37.654;2022-07-23T02:03:22;99505.66;;;15.56;71.93
50672;BME280;46021;55.882;37.654;2022-07-23T02:05:49;99502.53;;;15.66;71.70
50672;BME280;46021;55.882;37.654;2022-07-23T02:08:16;99494.16;;;15.75;71.83
50672;BME280;46021;55.882;37.654;2022-07-23T02:10:42;99499.66;;;15.86;71.24
50672;BME280;46021;55.882;37.654;2022-07-23T02:13:10;99505.16;;;15.97;71.00
50672;BME280;46021;55.882;37.654;2022-07-23T02:15:36;99493.34;;;16.05;71.43
50672;BME280;46021;55.882;37.654;2022-07-23T02:18:03;99499.94;;;16.12;71.39
50672;BME280;46021;55.882;37.654;2022-07-23T02:20:31;99496.19;;;16.16;71.03
50672;BME280;46021;55.882;37.654;2022-07-23T02:22:57;99498.38;;;16.24;70.75
50672;BME280;46021;55.882;37.654;2022-07-23T02:25:24;99497.97;;;16.31;70.98
50672;BME280;46021;55.882;37.654;2022-07-23T02:27:56;99496.56;;;16.40;70.15
50672;BME280;46021;55.882;37.654;2022-07-23T02:30:23;99499.69;;;16.47;70.15
50672;BME280;46021;55.882;37.654;2022-07-23T02:32:50;99501.00;;;16.54;70.00
50672;BME280;46021;55.882;37.654;2022-07-23T02:35:16;99492.66;;;16.62;70.56
50672;BME280;46021;55.882;37.654;2022-07-23T02:37:43;99500.09;;;16.69;69.55
50672;BME280;46021;55.882;37.654;2022-07-23T02:40:10;99499.56;;;16.79;69.88
50672;BME280;46021;55.882;37.654;2022-07-23T02:42:39;99498.16;;;16.87;69.88
50672;BME280;46021;55.882;37.654;2022-07-23T02:45:07;99500.31;;;16.95;69.86
50672;BME280;46021;55.882;37.654;2022-07-23T02:47:34;99500.72;;;17.03;69.86
50672;BME280;46021;55.882;37.654;2022-07-23T02:50:01;99500.25;;;17.11;68.78
50672;BME280;46021;55.882;37.654;2022-07-23T02:52:30;99497.13;;;17.19;69.51
50672;BME280;46021;55.882;37.654;2022-07-23T02:54:56;99494.84;;;17.27;69.28
50672;BME280;46021;55.882;37.654;2022-07-23T02:57:23;99496.81;;;17.38;69.00
50672;BME280;46021;55.882;37.654;2022-07-23T02:59:50;99495.53;;;17.58;68.96
50672;BME280;46021;55.882;37.654;2022-07-23T03:02:18;99500.56;;;17.89;69.73
50672;BME280;46021;55.882;37.654;2022-07-23T03:04:45;99494.56;;;18.27;69.10
50672;BME280;46021;55.882;37.654;2022-07-23T03:07:11;99497.03;;;18.69;68.99
50672;BME280;46021;55.882;37.654;2022-07-23T03:09:38;99490.63;;;19.12;68.64
50672;BME280;46021;55.882;37.654;2022-07-23T03:12:05;99493.69;;;19.55;67.34
50672;BME280;46021;55.882;37.654;2022-07-23T03:14:33;99496.91;;;19.96;66.51
50672;BME280;46021;55.882;37.654;2022-07-23T03:17:00;99501.88;;;20.36;65.93
50672;BME280;46021;55.882;37.654;2022-07-23T03:19:27;99509.72;;;20.73;64.89
50672;BME280;46021;55.882;37.654;2022-07-23T03:21:54;99503.97;;;21.01;63.95
50672;BME280;46021;55.882;37.654;2022-07-23T03:24:20;99499.84;;;21.31;63.51
50672;BME280;46021;55.882;37.654;2022-07-23T03:26:49;99504.06;;;21.56;61.82
50672;BME280;46021;55.882;37.654;2022-07-23T03:29:16;99501.84;;;21.84;61.43
50672;BME280;46021;55.882;37.654;2022-07-23T03:31:43;99511.03;;;22.12;60.37
50672;BME280;46021;55.882;37.654;2022-07-23T03:34:10;99509.47;;;22.42;60.38
50672;BME280;46021;55.882;37.654;2022-07-23T03:36:36;99512.91;;;22.75;59.44
50672;BME280;46021;55.882;37.654;2022-07-23T03:39:04;99509.56;;;23.04;58.21
50672;BME280;46021;55.882;37.654;2022-07-23T03:41:31;99502.31;;;23.37;55.19
50672;BME280;46021;55.882;37.654;2022-07-23T03:43:57;99514.13;;;23.63;57.01
50672;BME280;46021;55.882;37.654;2022-07-23T03:46:25;99512.50;;;23.82;55.86
50672;BME280;46021;55.882;37.654;2022-07-23T03:48:52;99503.53;;;24.02;55.44
50672;BME280;46021;55.882;37.654;2022-07-23T03:51:18;99496.84;;;24.27;54.85
50672;BME280;46021;55.882;37.654;2022-07-23T03:53:45;99485.88;;;24.50;54.02
50672;BME280;46021;55.882;37.654;2022-07-23T03:56:12;99500.41;;;24.75;53.00
50672;BME280;46021;55.882;37.654;2022-07-23T03:58:38;99493.00;;;25.06;52.44
50672;BME280;46021;55.882;37.654;2022-07-23T04:01:05;99503.31;;;25.39;52.23
50672;BME280;46021;55.882;37.654;2022-07-23T04:03:31;99506.81;;;25.57;51.85
50672;BME280;46021;55.882;37.654;2022-07-23T04:05:58;99509.69;;;25.74;50.44
50672;BME280;46021;55.882;37.654;2022-07-23T04:08:27;99503.25;;;25.94;50.18
50672;BME280;46021;55.882;37.654;2022-07-23T04:10:55;99501.34;;;26.22;49.68
50672;BME280;46021;55.882;37.654;2022-07-23T04:13:23;99504.31;;;26.37;48.92
50672;BME280;46021;55.882;37.654;2022-07-23T04:15:49;99507.91;;;26.72;48.52
50672;BME280;46021;55.882;37.654;2022-07-23T04:18:17;99508.41;;;27.02;47.77
50672;BME280;46021;55.882;37.654;2022-07-23T04:20:52;99490.47;;;27.20;46.82
50672;BME280;46021;55.882;37.654;2022-07-23T04:23:19;99505.66;;;27.54;46.55
50672;BME280;46021;55.882;37.654;2022-07-23T04:25:45;99497.41;;;27.90;44.84
50672;BME280;46021;55.882;37.654;2022-07-23T04:28:12;99498.09;;;28.17;45.39
50672;BME280;46021;55.882;37.654;2022-07-23T04:30:39;99506.47;;;28.38;44.71
50672;BME280;46021;55.882;37.654;2022-07-23T04:33:07;99505.97;;;28.76;44.64
50672;BME280;46021;55.882;37.654;2022-07-23T04:35:37;99503.69;;;29.04;43.64
50672;BME280;46021;55.882;37.654;2022-07-23T04:38:18;99509.00;;;29.29;42.90
50672;BME280;46021;55.882;37.654;2022-07-23T04:40:45;99505.88;;;29.57;42.60
50672;BME280;46021;55.882;37.654;2022-07-23T04:43:12;99504.97;;;29.96;41.25
50672;BME280;46021;55.882;37.654;2022-07-23T04:45:48;99521.13;;;30.42;42.11
50672;BME280;46021;55.882;37.654;2022-07-23T04:48:15;99505.41;;;30.68;40.81
50672;BME280;46021;55.882;37.654;2022-07-23T04:50:42;99510.25;;;30.88;40.09
50672;BME280;46021;55.882;37.654;2022-07-23T04:53:16;99508.75;;;31.30;39.98
50672;BME280;46021;55.882;37.654;2022-07-23T04:55:44;99498.28;;;31.72;39.21
50672;BME280;46021;55.882;37.654;2022-07-23T04:58:10;99491.72;;;31.96;39.05
50672;BME280;46021;55.882;37.654;2022-07-23T05:00:38;99495.84;;;32.13;38.07
50672;BME280;46021;55.882;37.654;2022-07-23T05:03:05;99494.25;;;32.47;37.95
50672;BME280;46021;55.882;37.654;2022-07-23T05:05:32;99483.22;;;32.63;37.46
50672;BME280;46021;55.882;37.654;2022-07-23T05:08:06;99486.16;;;32.69;37.03
50672;BME280;46021;55.882;37.654;2022-07-23T05:10:33;99485.75;;;32.72;36.63
50672;BME280;46021;55.882;37.654;2022-07-23T05:12:59;99490.03;;;32.94;35.32
50672;BME280;46021;55.882;37.654;2022-07-23T05:15:26;99482.81;;;33.01;35.72
50672;BME280;46021;55.882;37.654;2022-07-23T05:17:53;99485.34;;;32.75;35.10
50672;BME280;46021;55.882;37.654;2022-07-23T05:20:20;99488.34;;;32.58;35.76
50672;BME280;46021;55.882;37.654;2022-07-23T05:22:47;99484.16;;;32.56;35.89
50672;BME280;46021;55.882;37.654;2022-07-23T05:25:13;99483.72;;;32.80;34.94
50672;BME280;46021;55.882;37.654;2022-07-23T05:27:40;99480.88;;;32.89;34.83
50672;BME280;46021;55.882;37.654;2022-07-23T05:30:07;99485.22;;;33.18;34.81
50672;BME280;46021;55.882;37.654;2022-07-23T05:32:37;99486.78;;;33.47;34.21
50672;BME280;46021;55.882;37.654;2022-07-23T05:35:12;99487.94;;;33.93;33.65
50672;BME280;46021;55.882;37.654;2022-07-23T05:37:45;99484.28;;;34.41;33.46
50672;BME280;46021;55.882;37.654;2022-07-23T05:40:12;99483.19;;;34.55;32.67
50672;BME280;46021;55.882;37.654;2022-07-23T05:42:39;99480.09;;;34.58;32.73
50672;BME280;46021;55.882;37.654;2022-07-23T05:45:07;99476.97;;;34.48;32.24
50672;BME280;46021;55.882;37.654;2022-07-23T05:47:41;99480.50;;;34.48;30.91
50672;BME280;46021;55.882;37.654;2022-07-23T05:50:10;99472.63;;;34.33;32.03
50672;BME280;46021;55.882;37.654;2022-07-23T05:52:42;99464.63;;;33.65;31.09
50672;BME280;46021;55.882;37.654;2022-07-23T05:55:28;99465.88;;;33.21;31.80
50672;BME280;46021;55.882;37.654;2022-07-23T05:57:58;99477.47;;;33.63;32.50
50672;BME280;46021;55.882;37.654;2022-07-23T06:00:26;99479.47;;;34.23;32.04
50672;BME280;46021;55.882;37.654;2022-07-23T06:02:53;99485.28;;;34.86;31.37
50672;BME280;46021;55.882;37.654;2022-07-23T06:05:20;99474.94;;;35.28;30.44
50672;BME280;46021;55.882;37.654;2022-07-23T06:07:46;99472.06;;;35.10;29.86
50672;BME280;46021;55.882;37.654;2022-07-23T06:10:14;99469.09;;;35.31;30.14
50672;BME280;46021;55.882;37.654;2022-07-23T06:12:41;99473.19;;;35.41;30.00
50672;BME280;46021;55.882;37.654;2022-07-23T06:15:09;99463.34;;;35.53;29.53
50672;BME280;46021;55.882;37.654;2022-07-23T06:17:36;99472.75;;;35.89;29.58
50672;BME280;46021;55.882;37.654;2022-07-23T06:20:05;99467.22;;;35.70;29.62
50672;BME280;46021;55.882;37.654;2022-07-23T06:22:32;99460.56;;;35.73;29.33
50672;BME280;46021;55.882;37.654;2022-07-23T06:24:59;99469.47;;;34.70;28.67
50672;BME280;46021;55.882;37.654;2022-07-23T06:27:25;99466.31;;;33.18;30.09
50672;BME280;46021;55.882;37.654;2022-07-23T06:29:53;99468.91;;;31.98;31.57
50672;BME280;46021;55.882;37.654;2022-07-23T06:32:19;99466.63;;;30.78;32.85
50672;BME280;46021;55.882;37.654;2022-07-23T06:34:46;99462.75;;;29.81;33.95
50672;BME280;46021;55.882;37.654;2022-07-23T06:37:12;99474.03;;;28.97;34.79
50672;BME280;46021;55.882;37.654;2022-07-23T06:39:39;99466.78;;;28.34;35.96
50672;BME280;46021;55.882;37.654;2022-07-23T06:42:05;99459.50;;;27.69;36.98
50672;BME280;46021;55.882;37.654;2022-07-23T06:44:37;99458.88;;;27.24;38.56
50672;BME280;46021;55.882;37.654;2022-07-23T06:47:07;99469.56;;;26.90;38.91
50672;BME280;46021;55.882;37.654;2022-07-23T06:49:35;99459.06;;;26.62;39.13
50672;BME280;46021;55.882;37.654;2022-07-23T06:52:03;99453.34;;;26.39;39.76
50672;BME280;46021;55.882;37.654;2022-07-23T06:54:32;99465.28;;;26.09;40.98
50672;BME280;46021;55.882;37.654;2022-07-23T06:56:59;99462.00;;;25.79;41.21
50672;BME280;46021;55.882;37.654;2022-07-23T06:59:27;99452.53;;;25.66;41.56
50672;BME280;46021;55.882;37.654;2022-07-23T07:01:53;99466.56;;;25.68;41.38
50672;BME280;46021;55.882;37.654;2022-07-23T07:04:20;99462.88;;;25.52;42.45
50672;BME280;46021;55.882;37.654;2022-07-23T07:06:47;99460.91;;;25.36;43.07
50672;BME280;46021;55.882;37.654;2022-07-23T07:09:13;99455.28;;;25.39;42.95
50672;BME280;46021;55.882;37.654;2022-07-23T07:11:40;99457.69;;;25.32;43.37
50672;BME280;46021;55.882;37.654;2022-07-23T07:14:06;99459.59;;;25.40;43.11
50672;BME280;46021;55.882;37.654;2022-07-23T07:16:33;99462.72;;;25.35;43.42
50672;BME280;46021;55.882;37.654;2022-07-23T07:18:59;99458.03;;;24.72;45.00
50672;BME280;46021;55.882;37.654;2022-07-23T07:21:27;99460.31;;;24.47;45.57
50672;BME280;46021;55.882;37.654;2022-07-23T07:23:53;99456.94;;;24.65;45.29
50672;BME280;46021;55.882;37.654;2022-07-23T07:26:20;99451.16;;;24.79;44.41
50672;BME280;46021;55.882;37.654;2022-07-23T07:28:47;99458.00;;;24.92;44.84
50672;BME280;46021;55.882;37.654;2022-07-23T07:31:13;99461.72;;;24.99;44.28
50672;BME280;46021;55.882;37.654;2022-07-23T07:33:40;99462.69;;;25.07;44.77
50672;BME280;46021;55.882;37.654;2022-07-23T07:36:07;99447.28;;;25.01;44.10
50672;BME280;46021;55.882;37.654;2022-07-23T07:38:35;99456.22;;;24.82;45.38
50672;BME280;46021;55.882;37.654;2022-07-23T07:41:02;99451.13;;;24.89;44.99
50672;BME280;46021;55.882;37.654;2022-07-23T07:43:28;99454.84;;;25.06;45.43
50672;BME280;46021;55.882;37.654;2022-07-23T07:45:55;99459.03;;;25.08;45.41
50672;BME280;46021;55.882;37.654;2022-07-23T07:48:22;99459.00;;;25.18;44.52
50672;BME280;46021;55.882;37.654;2022-07-23T07:50:48;99461.09;;;24.87;45.44
50672;BME280;46021;55.882;37.654;2022-07-23T07:53:15;99454.31;;;24.93;44.99
50672;BME280;46021;55.882;37.654;2022-07-23T07:55:42;99462.19;;;24.94;45.74
50672;BME280;46021;55.882;37.654;2022-07-23T07:58:08;99458.59;;;24.76;45.60
50672;BME280;46021;55.882;37.654;2022-07-23T08:00:35;99454.94;;;24.86;44.91
50672;BME280;46021;55.882;37.654;2022-07-23T08:03:01;99463.03;;;25.22;44.56
50672;BME280;46021;55.882;37.654;2022-07-23T08:05:29;99456.94;;;25.40;44.27
50672;BME280;46021;55.882;37.654;2022-07-23T08:07:57;99448.78;;;25.59;44.49
50672;BME280;46021;55.882;37.654;2022-07-23T08:10:24;99451.34;;;25.79;43.91
50672;BME280;46021;55.882;37.654;2022-07-23T08:12:53;99454.03;;;25.97;43.73
50672;BME280;46021;55.882;37.654;2022-07-23T08:15:22;99455.00;;;26.14;43.48
50672;BME280;46021;55.882;37.654;2022-07-23T08:17:49;99453.09;;;26.06;42.83
50672;BME280;46021;55.882;37.654;2022-07-23T08:20:17;99451.69;;;26.20;42.94
50672;BME280;46021;55.882;37.654;2022-07-23T08:22:45;99454.53;;;26.44;42.97
50672;BME280;46021;55.882;37.654;2022-07-23T08:25:13;99445.59;;;26.54;42.38
50672;BME280;46021;55.882;37.654;2022-07-23T08:27:42;99451.44;;;26.75;42.42
50672;BME280;46021;55.882;37.654;2022-07-23T08:30:09;99444.63;;;26.81;41.86
50672;BME280;46021;55.882;37.654;2022-07-23T08:32:50;99441.09;;;26.80;40.48
50672;BME280;46021;55.882;37.654;2022-07-23T08:35:17;99448.13;;;26.81;41.16
50672;BME280;46021;55.882;37.654;2022-07-23T08:37:44;99445.19;;;26.93;41.29
50672;BME280;46021;55.882;37.654;2022-07-23T08:40:12;99441.19;;;27.05;41.13
50672;BME280;46021;55.882;37.654;2022-07-23T08:42:39;99447.47;;;26.88;40.35
50672;BME280;46021;55.882;37.654;2022-07-23T08:45:07;99434.22;;;26.52;40.02
50672;BME280;46021;55.882;37.654;2022-07-23T08:47:36;99446.25;;;26.74;40.15
50672;BME280;46021;55.882;37.654;2022-07-23T08:50:03;99442.88;;;26.98;39.79
50672;BME280;46021;55.882;37.654;2022-07-23T08:52:30;99441.34;;;27.30;38.97
50672;BME280;46021;55.882;37.654;2022-07-23T08:54:57;99437.88;;;27.54;39.31
50672;BME280;46021;55.882;37.654;2022-07-23T08:57:24;99432.41;;;27.72;39.08
50672;BME280;46021;55.882;37.654;2022-07-23T08:59:50;99422.19;;;27.75;38.91
50672;BME280;46021;55.882;37.654;2022-07-23T09:02:17;99428.66;;;27.48;38.70
50672;BME280;46021;55.882;37.654;2022-07-23T09:04:44;99435.25;;;27.87;39.30
50672;BME280;46021;55.882;37.654;2022-07-23T09:07:11;99429.22;;;29.06;39.13
50672;BME280;46021;55.882;37.654;2022-07-23T09:09:38;99425.88;;;30.81;37.13
50672;BME280;46021;55.882;37.654;2022-07-23T09:12:05;99416.81;;;32.76;34.88
50672;BME280;46021;55.882;37.654;2022-07-23T09:14:37;99419.88;;;34.63;31.96
50672;BME280;46021;55.882;37.654;2022-07-23T09:17:09;99411.88;;;35.78;28.27
50672;BME280;46021;55.882;37.654;2022-07-23T09:19:35;99412.59;;;36.67;28.42
50672;BME280;46021;55.882;37.654;2022-07-23T09:22:20;99409.66;;;37.67;26.43
50672;BME280;46021;55.882;37.654;2022-07-23T09:25:03;99410.94;;;38.41;26.19
50672;BME280;46021;55.882;37.654;2022-07-23T09:27:46;99410.84;;;37.71;24.75
50672;BME280;46021;55.882;37.654;2022-07-23T09:30:13;99414.69;;;36.22;26.80
50672;BME280;46021;55.882;37.654;2022-07-23T09:32:40;99423.41;;;34.63;28.30
50672;BME280;46021;55.882;37.654;2022-07-23T09:35:07;99417.09;;;33.29;29.58
50672;BME280;46021;55.882;37.654;2022-07-23T09:37:34;99422.84;;;32.43;30.62
50672;BME280;46021;55.882;37.654;2022-07-23T09:40:04;99427.00;;;32.17;31.69
50672;BME280;46021;55.882;37.654;2022-07-23T09:42:32;99414.38;;;32.81;32.31
50672;BME280;46021;55.882;37.654;2022-07-23T09:44:58;99419.72;;;34.04;31.22
50672;BME280;46021;55.882;37.654;2022-07-23T09:47:27;99416.38;;;35.59;29.06
50672;BME280;46021;55.882;37.654;2022-07-23T09:50:01;99410.00;;;36.91;26.49
50672;BME280;46021;55.882;37.654;2022-07-23T09:52:32;99412.88;;;37.87;26.36
50672;BME280;46021;55.882;37.654;2022-07-23T09:55:02;99416.16;;;38.08;25.49
50672;BME280;46021;55.882;37.654;2022-07-23T09:57:31;99411.69;;;38.89;25.40
50672;BME280;46021;55.882;37.654;2022-07-23T10:00:01;99415.69;;;39.10;24.27
50672;BME280;46021;55.882;37.654;2022-07-23T10:02:32;99398.72;;;39.66;24.64
50672;BME280;46021;55.882;37.654;2022-07-23T10:05:17;99396.91;;;40.05;24.03
50672;BME280;46021;55.882;37.654;2022-07-23T10:08:12;99396.25;;;40.15;23.75
50672;BME280;46021;55.882;37.654;2022-07-23T10:10:45;99390.19;;;39.79;23.45
50672;BME280;46021;55.882;37.654;2022-07-23T10:13:28;99389.94;;;39.64;22.51
50672;BME280;46021;55.882;37.654;2022-07-23T10:16:13;99385.13;;;38.56;23.27
50672;BME280;46021;55.882;37.654;2022-07-23T10:18:40;99387.09;;;38.72;23.77
50672;BME280;46021;55.882;37.654;2022-07-23T10:21:08;99394.16;;;39.26;23.69
50672;BME280;46021;55.882;37.654;2022-07-23T10:23:41;99379.84;;;37.30;24.04
50672;BME280;46021;55.882;37.654;2022-07-23T10:26:17;99388.34;;;35.79;24.87
50672;BME280;46021;55.882;37.654;2022-07-23T10:29:00;99383.47;;;32.90;27.97
50672;BME280;46021;55.882;37.654;2022-07-23T10:31:38;99380.31;;;32.80;28.01
50672;BME280;46021;55.882;37.654;2022-07-23T10:34:12;99385.44;;;32.40;28.70
50672;BME280;46021;55.882;37.654;2022-07-23T10:36:47;99378.72;;;32.01;29.19
50672;BME280;46021;55.882;37.654;2022-07-23T10:39:20;99376.66;;;31.75;29.78
50672;BME280;46021;55.882;37.654;2022-07-23T10:41:49;99381.31;;;31.44;30.32
50672;BME280;46021;55.882;37.654;2022-07-23T10:44:18;99370.09;;;31.04;30.45
50672;BME280;46021;55.882;37.654;2022-07-23T10:47:03;99371.59;;;30.62;31.33
50672;BME280;46021;55.882;37.654;2022-07-23T10:49:38;99364.09;;;30.43;31.58
50672;BME280;46021;55.882;37.654;2022-07-23T10:52:17;99363.09;;;30.44;31.94
50672;BME280;46021;55.882;37.654;2022-07-23T10:54:48;99365.84;;;30.36;32.40
50672;BME280;46021;55.882;37.654;2022-07-23T10:57:17;99358.22;;;30.84;32.47
50672;BME280;46021;55.882;37.654;2022-07-23T11:00:16;99354.34;;;32.09;31.95
50672;BME280;46021;55.882;37.654;2022-07-23T11:02:44;99348.56;;;32.89;30.27
50672;BME280;46021;55.882;37.654;2022-07-23T11:05:13;99346.28;;;32.86;29.44
50672;BME280;46021;55.882;37.654;2022-07-23T11:08:11;99348.34;;;33.38;29.30
50672;BME280;46021;55.882;37.654;2022-07-23T11:10:43;99348.59;;;34.24;29.37
50672;BME280;46021;55.882;37.654;2022-07-23T11:16:24;99351.38;;;34.69;27.79
50672;BME280;46021;55.882;37.654;2022-07-23T11:19:07;99346.09;;;33.75;28.16
50672;BME280;46021;55.882;37.654;2022-07-23T11:21:50;99337.22;;;33.07;28.85
50672;BME280;46021;55.882;37.654;2022-07-23T11:24:20;99342.59;;;32.52;29.65
50672;BME280;46021;55.882;37.654;2022-07-23T11:26:53;99334.31;;;31.97;30.12
50672;BME280;46021;55.882;37.654;2022-07-23T11:29:48;99334.31;;;31.69;30.79
50672;BME280;46021;55.882;37.654;2022-07-23T11:35:25;99337.47;;;30.78;31.47
50672;BME280;46021;55.882;37.654;2022-07-23T11:37:52;99338.34;;;30.85;30.94
50672;BME280;46021;55.882;37.654;2022-07-23T11:40:24;99337.16;;;30.28;31.60
50672;BME280;46021;55.882;37.654;2022-07-23T11:42:54;99337.84;;;30.45;32.48
50672;BME280;46021;55.882;37.654;2022-07-23T11:45:22;99333.56;;;30.95;32.27
50672;BME280;46021;55.882;37.654;2022-07-23T11:47:50;99325.38;;;31.68;31.88
50672;BME280;46021;55.882;37.654;2022-07-23T11:50:17;99327.16;;;32.80;31.29
50672;BME280;46021;55.882;37.654;2022-07-23T11:52:43;99327.34;;;33.40;30.03
50672;BME280;46021;55.882;37.654;2022-07-23T11:55:11;99329.84;;;33.49;29.76
50672;BME280;46021;55.882;37.654;2022-07-23T11:57:40;99330.88;;;33.61;29.48
50672;BME280;46021;55.882;37.654;2022-07-23T12:00:09;99311.13;;;34.07;29.09
50672;BME280;46021;55.882;37.654;2022-07-23T12:02:40;99318.28;;;34.53;28.85
50672;BME280;46021;55.882;37.654;2022-07-23T12:05:12;99315.06;;;34.83;27.85
50672;BME280;46021;55.882;37.654;2022-07-23T12:07:40;99308.19;;;34.02;27.62
50672;BME280;46021;55.882;37.654;2022-07-23T12:10:11;99307.69;;;32.15;29.20
50672;BME280;46021;55.882;37.654;2022-07-23T12:12:40;99310.88;;;31.04;30.85
50672;BME280;46021;55.882;37.654;2022-07-23T12:15:08;99318.91;;;30.68;31.37
50672;BME280;46021;55.882;37.654;2022-07-23T12:17:36;99305.50;;;30.38;31.59
50672;BME280;46021;55.882;37.654;2022-07-23T12:20:04;99295.91;;;29.68;33.29
50672;BME280;46021;55.882;37.654;2022-07-23T12:22:38;99297.41;;;29.70;33.21
50672;BME280;46021;55.882;37.654;2022-07-23T12:25:07;99300.91;;;30.09;33.41
50672;BME280;46021;55.882;37.654;2022-07-23T12:27:37;99289.53;;;30.88;32.53
50672;BME280;46021;55.882;37.654;2022-07-23T12:30:18;99290.31;;;31.61;31.65
50672;BME280;46021;55.882;37.654;2022-07-23T12:32:46;99290.44;;;32.03;30.92
50672;BME280;46021;55.882;37.654;2022-07-23T12:35:13;99288.06;;;31.93;30.65
50672;BME280;46021;55.882;37.654;2022-07-23T12:37:41;99282.84;;;31.92;31.94
50672;BME280;46021;55.882;37.654;2022-07-23T12:40:26;99287.19;;;32.14;30.92
50672;BME280;46021;55.882;37.654;2022-07-23T12:42:55;99288.44;;;31.90;30.61
50672;BME280;46021;55.882;37.654;2022-07-23T12:45:22;99294.34;;;31.51;30.77
50672;BME280;46021;55.882;37.654;2022-07-23T12:47:52;99287.81;;;31.38;31.27
50672;BME280;46021;55.882;37.654;2022-07-23T12:50:37;99282.72;;;31.28;31.42
50672;BME280;46021;55.882;37.654;2022-07-23T12:53:06;99281.78;;;31.36;31.85
50672;BME280;46021;55.882;37.654;2022-07-23T12:55:34;99275.63;;;31.42;31.73
50672;BME280;46021;55.882;37.654;2022-07-23T12:58:09;99272.84;;;31.36;31.81
50672;BME280;46021;55.882;37.654;2022-07-23T13:00:52;99267.59;;;31.27;31.39
50672;BME280;46021;55.882;37.654;2022-07-23T13:03:24;99265.94;;;31.05;31.51
50672;BME280;46021;55.882;37.654;2022-07-23T13:05:51;99265.81;;;30.77;31.79
50672;BME280;46021;55.882;37.654;2022-07-23T13:08:18;99263.81;;;30.49;31.58